< < Back
Terminal Aerodrome Forecast


Current Version              Previous Versions:   1  2  3  4  5  6  7  8  9  

Terminal Aerodrome Forecast

917
FTUS42 KMLB 241100
TAFMCO
TAF
KMCO 241126Z 2412/2512 18003KT P6SM FEW025
     FM241400 22005KT P6SM SCT025 SCT250
     FM242000 21007KT P6SM VCTS SCT045CB BKN250
     FM250000 18004KT P6SM FEW050 SCT250=



Latest METAR

420
SAUS70 KWBC 241700 RRC
MTRMCO
METAR KMCO 241653Z 00000KT 10SM SCT031TCU 31/23 A3006 RMK AO2 SLP176 TCU
NE AND SE-SW T03110228


USA.gov is the U.S. government's official web portal to all federal, state and local government web resources and services.